sensor_id;sensor_type;location;lat;lon;timestamp;P1;durP1;ratioP1;P2;durP2;ratioP2
9413;SDS011;4746;35.664;139.738;2023-09-18T00:01:25;6.43;;;5.80;;
9413;SDS011;4746;35.664;139.738;2023-09-18T00:03:53;5.97;;;5.57;;
9413;SDS011;4746;35.664;139.738;2023-09-18T00:06:21;6.43;;;5.82;;
9413;SDS011;4746;35.664;139.738;2023-09-18T00:08:50;7.25;;;6.35;;
9413;SDS011;4746;35.664;139.738;2023-09-18T00:11:19;5.97;;;5.53;;
9413;SDS011;4746;35.664;139.738;2023-09-18T00:13:46;6.10;;;5.60;;
9413;SDS011;4746;35.664;139.738;2023-09-18T00:16:14;6.30;;;5.70;;
9413;SDS011;4746;35.664;139.738;2023-09-18T00:18:42;5.43;;;5.03;;
9413;SDS011;4746;35.664;139.738;2023-09-18T00:21:10;5.28;;;4.72;;
9413;SDS011;4746;35.664;139.738;2023-09-18T00:23:38;6.28;;;5.78;;
9413;SDS011;4746;35.664;139.738;2023-09-18T00:26:06;5.60;;;5.20;;
9413;SDS011;4746;35.664;139.738;2023-09-18T00:28:33;5.45;;;4.95;;
9413;SDS011;4746;35.664;139.738;2023-09-18T00:31:01;4.70;;;4.40;;
9413;SDS011;4746;35.664;139.738;2023-09-18T00:33:29;5.60;;;5.10;;
9413;SDS011;4746;35.664;139.738;2023-09-18T00:35:58;4.95;;;4.55;;
9413;SDS011;4746;35.664;139.738;2023-09-18T00:38:25;4.95;;;4.53;;
9413;SDS011;4746;35.664;139.738;2023-09-18T00:40:53;5.32;;;4.82;;
9413;SDS011;4746;35.664;139.738;2023-09-18T00:43:22;5.28;;;4.88;;
9413;SDS011;4746;35.664;139.738;2023-09-18T00:45:49;5.75;;;5.35;;
9413;SDS011;4746;35.664;139.738;2023-09-18T00:48:17;5.28;;;4.88;;
9413;SDS011;4746;35.664;139.738;2023-09-18T00:50:45;4.80;;;4.35;;
9413;SDS011;4746;35.664;139.738;2023-09-18T00:53:15;5.55;;;5.05;;
9413;SDS011;4746;35.664;139.738;2023-09-18T00:55:47;5.60;;;5.10;;
9413;SDS011;4746;35.664;139.738;2023-09-18T00:58:21;5.43;;;5.03;;
9413;SDS011;4746;35.664;139.738;2023-09-18T01:00:49;5.43;;;4.93;;
9413;SDS011;4746;35.664;139.738;2023-09-18T01:03:17;4.68;;;4.38;;
9413;SDS011;4746;35.664;139.738;2023-09-18T01:05:51;5.60;;;5.10;;
9413;SDS011;4746;35.664;139.738;2023-09-18T01:08:21;5.20;;;4.70;;
9413;SDS011;4746;35.664;139.738;2023-09-18T01:11:06;5.53;;;5.13;;
9413;SDS011;4746;35.664;139.738;2023-09-18T01:14:09;5.18;;;4.75;;
9413;SDS011;4746;35.664;139.738;2023-09-18T01:17:06;6.03;;;5.50;;
9413;SDS011;4746;35.664;139.738;2023-09-18T01:19:46;5.22;;;4.82;;
9413;SDS011;4746;35.664;139.738;2023-09-18T01:22:14;5.22;;;4.82;;
9413;SDS011;4746;35.664;139.738;2023-09-18T01:24:44;5.13;;;4.70;;
9413;SDS011;4746;35.664;139.738;2023-09-18T01:27:14;4.72;;;4.43;;
9413;SDS011;4746;35.664;139.738;2023-09-18T01:29:47;4.70;;;4.40;;
9413;SDS011;4746;35.664;139.738;2023-09-18T01:32:15;4.65;;;4.25;;
9413;SDS011;4746;35.664;139.738;2023-09-18T01:34:48;4.13;;;3.83;;
9413;SDS011;4746;35.664;139.738;2023-09-18T01:37:21;4.15;;;3.88;;
9413;SDS011;4746;35.664;139.738;2023-09-18T01:39:53;4.90;;;3.83;;
9413;SDS011;4746;35.664;139.738;2023-09-18T01:42:25;4.15;;;3.85;;
9413;SDS011;4746;35.664;139.738;2023-09-18T01:44:54;4.18;;;3.78;;
9413;SDS011;4746;35.664;139.738;2023-09-18T01:47:22;4.47;;;4.18;;
9413;SDS011;4746;35.664;139.738;2023-09-18T01:49:52;4.55;;;4.22;;
9413;SDS011;4746;35.664;139.738;2023-09-18T01:52:19;4.30;;;3.90;;
9413;SDS011;4746;35.664;139.738;2023-09-18T01:54:47;4.78;;;4.22;;
9413;SDS011;4746;35.664;139.738;2023-09-18T01:57:16;3.85;;;3.55;;
9413;SDS011;4746;35.664;139.738;2023-09-18T01:59:43;3.83;;;3.58;;
9413;SDS011;4746;35.664;139.738;2023-09-18T02:02:13;3.60;;;3.30;;
9413;SDS011;4746;35.664;139.738;2023-09-18T02:04:41;3.60;;;3.30;;
9413;SDS011;4746;35.664;139.738;2023-09-18T02:07:10;3.40;;;3.10;;
9413;SDS011;4746;35.664;139.738;2023-09-18T02:09:37;3.35;;;3.05;;
9413;SDS011;4746;35.664;139.738;2023-09-18T02:12:05;3.05;;;2.85;;
9413;SDS011;4746;35.664;139.738;2023-09-18T02:14:53;3.58;;;3.33;;
9413;SDS011;4746;35.664;139.738;2023-09-18T02:17:37;3.17;;;2.88;;
9413;SDS011;4746;35.664;139.738;2023-09-18T02:20:28;2.90;;;2.70;;
9413;SDS011;4746;35.664;139.738;2023-09-18T02:23:16;3.55;;;3.00;;
9413;SDS011;4746;35.664;139.738;2023-09-18T02:26:02;3.35;;;3.13;;
9413;SDS011;4746;35.664;139.738;2023-09-18T02:28:42;4.55;;;3.10;;
9413;SDS011;4746;35.664;139.738;2023-09-18T02:31:15;2.85;;;2.65;;
9413;SDS011;4746;35.664;139.738;2023-09-18T02:33:43;3.55;;;2.50;;
9413;SDS011;4746;35.664;139.738;2023-09-18T02:36:21;4.45;;;2.80;;
9413;SDS011;4746;35.664;139.738;2023-09-18T02:38:48;2.50;;;2.35;;
9413;SDS011;4746;35.664;139.738;2023-09-18T02:41:16;2.60;;;2.40;;
9413;SDS011;4746;35.664;139.738;2023-09-18T02:43:43;2.88;;;2.65;;
9413;SDS011;4746;35.664;139.738;2023-09-18T02:46:13;3.22;;;2.22;;
9413;SDS011;4746;35.664;139.738;2023-09-18T02:48:41;2.40;;;2.20;;
9413;SDS011;4746;35.664;139.738;2023-09-18T02:51:08;2.80;;;2.60;;
9413;SDS011;4746;35.664;139.738;2023-09-18T02:53:36;2.30;;;2.20;;
9413;SDS011;4746;35.664;139.738;2023-09-18T02:56:03;2.55;;;2.35;;
9413;SDS011;4746;35.664;139.738;2023-09-18T02:58:31;2.63;;;2.40;;
9413;SDS011;4746;35.664;139.738;2023-09-18T03:00:59;2.65;;;2.45;;
9413;SDS011;4746;35.664;139.738;2023-09-18T03:03:31;2.35;;;2.25;;
9413;SDS011;4746;35.664;139.738;2023-09-18T03:06:07;2.53;;;2.28;;
9413;SDS011;4746;35.664;139.738;2023-09-18T03:08:35;2.30;;;2.05;;
9413;SDS011;4746;35.664;139.738;2023-09-18T03:11:15;3.25;;;2.10;;
9413;SDS011;4746;35.664;139.738;2023-09-18T03:13:46;3.25;;;2.38;;
9413;SDS011;4746;35.664;139.738;2023-09-18T03:16:22;2.00;;;1.80;;
9413;SDS011;4746;35.664;139.738;2023-09-18T03:19:10;2.78;;;1.90;;
9413;SDS011;4746;35.664;139.738;2023-09-18T03:21:50;2.10;;;2.00;;
9413;SDS011;4746;35.664;139.738;2023-09-18T03:24:20;1.88;;;1.77;;
9413;SDS011;4746;35.664;139.738;2023-09-18T03:26:48;2.75;;;1.13;;
9413;SDS011;4746;35.664;139.738;2023-09-18T03:29:16;1.70;;;1.60;;
9413;SDS011;4746;35.664;139.738;2023-09-18T03:31:55;2.38;;;1.70;;
9413;SDS011;4746;35.664;139.738;2023-09-18T03:34:31;2.53;;;1.70;;
9413;SDS011;4746;35.664;139.738;2023-09-18T03:36:59;1.75;;;1.60;;
9413;SDS011;4746;35.664;139.738;2023-09-18T03:39:29;3.13;;;1.48;;
9413;SDS011;4746;35.664;139.738;2023-09-18T03:42:00;1.40;;;1.30;;
9413;SDS011;4746;35.664;139.738;2023-09-18T03:44:34;1.58;;;1.48;;
9413;SDS011;4746;35.664;139.738;2023-09-18T03:49:56;1.65;;;1.20;;
9413;SDS011;4746;35.664;139.738;2023-09-18T03:52:37;1.90;;;1.30;;
9413;SDS011;4746;35.664;139.738;2023-09-18T03:55:17;1.13;;;1.05;;
9413;SDS011;4746;35.664;139.738;2023-09-18T03:57:55;1.23;;;1.13;;
9413;SDS011;4746;35.664;139.738;2023-09-18T04:00:29;1.83;;;1.30;;
9413;SDS011;4746;35.664;139.738;2023-09-18T04:03:20;2.47;;;1.17;;
9413;SDS011;4746;35.664;139.738;2023-09-18T04:05:53;1.30;;;1.00;;
9413;SDS011;4746;35.664;139.738;2023-09-18T04:08:20;1.05;;;0.95;;
9413;SDS011;4746;35.664;139.738;2023-09-18T04:10:48;3.35;;;1.40;;
9413;SDS011;4746;35.664;139.738;2023-09-18T04:13:15;1.08;;;1.00;;
9413;SDS011;4746;35.664;139.738;2023-09-18T04:15:53;1.50;;;1.40;;
9413;SDS011;4746;35.664;139.738;2023-09-18T04:18:26;1.70;;;1.20;;
9413;SDS011;4746;35.664;139.738;2023-09-18T04:21:04;2.53;;;1.27;;
9413;SDS011;4746;35.664;139.738;2023-09-18T04:23:38;1.50;;;1.00;;
9413;SDS011;4746;35.664;139.738;2023-09-18T04:26:15;0.95;;;0.77;;
9413;SDS011;4746;35.664;139.738;2023-09-18T04:28:51;3.33;;;1.20;;
9413;SDS011;4746;35.664;139.738;2023-09-18T04:31:19;1.92;;;1.23;;
9413;SDS011;4746;35.664;139.738;2023-09-18T04:34:03;3.42;;;1.60;;
9413;SDS011;4746;35.664;139.738;2023-09-18T04:36:31;1.58;;;1.10;;
9413;SDS011;4746;35.664;139.738;2023-09-18T04:39:03;2.55;;;1.48;;
9413;SDS011;4746;35.664;139.738;2023-09-18T04:41:34;0.85;;;0.75;;
9413;SDS011;4746;35.664;139.738;2023-09-18T04:44:11;1.40;;;0.77;;
9413;SDS011;4746;35.664;139.738;2023-09-18T04:46:44;1.85;;;1.23;;
9413;SDS011;4746;35.664;139.738;2023-09-18T04:49:17;2.35;;;1.25;;
9413;SDS011;4746;35.664;139.738;2023-09-18T04:51:59;2.83;;;1.20;;
9413;SDS011;4746;35.664;139.738;2023-09-18T04:54:26;1.95;;;1.10;;
9413;SDS011;4746;35.664;139.738;2023-09-18T04:57:00;2.50;;;1.10;;
9413;SDS011;4746;35.664;139.738;2023-09-18T04:59:28;1.63;;;1.15;;
9413;SDS011;4746;35.664;139.738;2023-09-18T05:01:56;2.13;;;1.10;;
9413;SDS011;4746;35.664;139.738;2023-09-18T05:04:30;3.25;;;1.50;;
9413;SDS011;4746;35.664;139.738;2023-09-18T05:07:18;2.28;;;1.35;;
9413;SDS011;4746;35.664;139.738;2023-09-18T05:10:13;1.10;;;1.00;;
9413;SDS011;4746;35.664;139.738;2023-09-18T05:16:05;2.47;;;1.10;;
9413;SDS011;4746;35.664;139.738;2023-09-18T05:18:48;1.90;;;0.90;;
9413;SDS011;4746;35.664;139.738;2023-09-18T05:21:22;1.90;;;0.98;;
9413;SDS011;4746;35.664;139.738;2023-09-18T05:23:52;1.95;;;1.27;;
9413;SDS011;4746;35.664;139.738;2023-09-18T05:26:19;2.47;;;0.70;;
9413;SDS011;4746;35.664;139.738;2023-09-18T05:28:50;2.03;;;1.00;;
9413;SDS011;4746;35.664;139.738;2023-09-18T05:31:21;2.78;;;1.27;;
9413;SDS011;4746;35.664;139.738;2023-09-18T05:33:50;1.63;;;1.10;;
9413;SDS011;4746;35.664;139.738;2023-09-18T05:36:17;2.15;;;1.00;;
9413;SDS011;4746;35.664;139.738;2023-09-18T05:38:47;3.10;;;1.30;;
9413;SDS011;4746;35.664;139.738;2023-09-18T05:41:19;3.67;;;1.70;;
9413;SDS011;4746;35.664;139.738;2023-09-18T05:43:49;4.85;;;1.90;;
9413;SDS011;4746;35.664;139.738;2023-09-18T05:46:19;3.90;;;1.60;;
9413;SDS011;4746;35.664;139.738;2023-09-18T05:48:46;3.95;;;1.60;;
9413;SDS011;4746;35.664;139.738;2023-09-18T05:51:14;3.22;;;1.90;;
9413;SDS011;4746;35.664;139.738;2023-09-18T05:53:42;4.20;;;1.48;;
9413;SDS011;4746;35.664;139.738;2023-09-18T05:56:10;2.65;;;1.42;;
9413;SDS011;4746;35.664;139.738;2023-09-18T05:58:37;0.60;;;0.60;;
9413;SDS011;4746;35.664;139.738;2023-09-18T06:01:06;1.45;;;0.75;;
9413;SDS011;4746;35.664;139.738;2023-09-18T06:03:34;2.13;;;0.80;;
9413;SDS011;4746;35.664;139.738;2023-09-18T06:06:02;0.90;;;0.60;;
9413;SDS011;4746;35.664;139.738;2023-09-18T06:08:31;1.65;;;0.75;;
9413;SDS011;4746;35.664;139.738;2023-09-18T06:10:59;1.52;;;0.75;;
9413;SDS011;4746;35.664;139.738;2023-09-18T06:13:27;0.98;;;0.68;;
9413;SDS011;4746;35.664;139.738;2023-09-18T06:16:01;0.80;;;0.80;;
9413;SDS011;4746;35.664;139.738;2023-09-18T06:22:20;2.50;;;0.82;;
9413;SDS011;4746;35.664;139.738;2023-09-18T06:24:57;1.35;;;0.90;;
9413;SDS011;4746;35.664;139.738;2023-09-18T06:27:25;0.90;;;0.60;;
9413;SDS011;4746;35.664;139.738;2023-09-18T06:30:44;1.42;;;0.73;;
9413;SDS011;4746;35.664;139.738;2023-09-18T06:33:54;1.02;;;0.70;;
9413;SDS011;4746;35.664;139.738;2023-09-18T06:36:19;1.58;;;0.95;;
9413;SDS011;4746;35.664;139.738;2023-09-18T06:38:47;1.08;;;0.50;;
9413;SDS011;4746;35.664;139.738;2023-09-18T06:41:14;1.67;;;0.60;;
9413;SDS011;4746;35.664;139.738;2023-09-18T06:43:42;0.88;;;0.52;;
9413;SDS011;4746;35.664;139.738;2023-09-18T06:46:10;0.85;;;0.40;;
9413;SDS011;4746;35.664;139.738;2023-09-18T06:48:38;1.38;;;0.70;;
9413;SDS011;4746;35.664;139.738;2023-09-18T06:51:11;0.93;;;0.57;;
9413;SDS011;4746;35.664;139.738;2023-09-18T06:53:38;1.20;;;0.68;;
9413;SDS011;4746;35.664;139.738;2023-09-18T06:56:06;1.48;;;0.60;;
9413;SDS011;4746;35.664;139.738;2023-09-18T06:58:35;1.85;;;0.70;;
9413;SDS011;4746;35.664;139.738;2023-09-18T07:01:04;0.93;;;0.50;;
9413;SDS011;4746;35.664;139.738;2023-09-18T07:03:33;0.70;;;0.47;;
9413;SDS011;4746;35.664;139.738;2023-09-18T07:06:02;1.23;;;0.50;;
9413;SDS011;4746;35.664;139.738;2023-09-18T07:08:32;1.25;;;0.47;;
9413;SDS011;4746;35.664;139.738;2023-09-18T07:11:00;2.20;;;0.60;;
9413;SDS011;4746;35.664;139.738;2023-09-18T07:13:27;1.40;;;0.80;;
9413;SDS011;4746;35.664;139.738;2023-09-18T07:15:55;2.10;;;0.47;;
9413;SDS011;4746;35.664;139.738;2023-09-18T07:18:22;1.42;;;0.60;;
9413;SDS011;4746;35.664;139.738;2023-09-18T07:20:50;1.58;;;0.55;;
9413;SDS011;4746;35.664;139.738;2023-09-18T07:23:18;1.13;;;0.40;;
9413;SDS011;4746;35.664;139.738;2023-09-18T07:25:50;0.88;;;0.45;;
9413;SDS011;4746;35.664;139.738;2023-09-18T07:28:17;2.03;;;0.70;;
9413;SDS011;4746;35.664;139.738;2023-09-18T07:30:49;0.98;;;0.82;;
9413;SDS011;4746;35.664;139.738;2023-09-18T07:33:16;0.95;;;0.77;;
9413;SDS011;4746;35.664;139.738;2023-09-18T07:35:46;1.70;;;0.95;;
9413;SDS011;4746;35.664;139.738;2023-09-18T07:38:14;1.50;;;0.88;;
9413;SDS011;4746;35.664;139.738;2023-09-18T07:40:43;2.75;;;0.90;;
9413;SDS011;4746;35.664;139.738;2023-09-18T07:43:13;1.65;;;1.00;;
9413;SDS011;4746;35.664;139.738;2023-09-18T07:45:40;1.25;;;0.90;;
9413;SDS011;4746;35.664;139.738;2023-09-18T07:48:08;2.33;;;1.20;;
9413;SDS011;4746;35.664;139.738;2023-09-18T07:50:36;1.10;;;0.80;;
9413;SDS011;4746;35.664;139.738;2023-09-18T07:53:03;2.33;;;1.02;;
9413;SDS011;4746;35.664;139.738;2023-09-18T07:55:31;1.40;;;0.82;;
9413;SDS011;4746;35.664;139.738;2023-09-18T07:58:07;1.33;;;0.70;;
9413;SDS011;4746;35.664;139.738;2023-09-18T08:00:35;1.90;;;0.80;;
9413;SDS011;4746;35.664;139.738;2023-09-18T08:03:03;2.00;;;0.77;;
9413;SDS011;4746;35.664;139.738;2023-09-18T08:05:32;0.68;;;0.60;;
9413;SDS011;4746;35.664;139.738;2023-09-18T08:08:01;3.00;;;0.90;;
9413;SDS011;4746;35.664;139.738;2023-09-18T08:10:30;1.95;;;0.80;;
9413;SDS011;4746;35.664;139.738;2023-09-18T08:13:02;1.23;;;0.80;;
9413;SDS011;4746;35.664;139.738;2023-09-18T08:15:32;0.55;;;0.50;;
9413;SDS011;4746;35.664;139.738;2023-09-18T08:18:00;3.03;;;0.70;;
9413;SDS011;4746;35.664;139.738;2023-09-18T08:20:30;0.90;;;0.55;;
9413;SDS011;4746;35.664;139.738;2023-09-18T08:23:05;1.35;;;0.60;;
9413;SDS011;4746;35.664;139.738;2023-09-18T08:25:43;2.65;;;0.80;;
9413;SDS011;4746;35.664;139.738;2023-09-18T08:28:12;1.77;;;0.70;;
9413;SDS011;4746;35.664;139.738;2023-09-18T08:30:52;0.68;;;0.68;;
9413;SDS011;4746;35.664;139.738;2023-09-18T08:33:33;1.83;;;0.80;;
9413;SDS011;4746;35.664;139.738;2023-09-18T08:36:01;0.70;;;0.70;;
9413;SDS011;4746;35.664;139.738;2023-09-18T08:38:31;1.67;;;0.60;;
9413;SDS011;4746;35.664;139.738;2023-09-18T08:40:59;0.65;;;0.60;;
9413;SDS011;4746;35.664;139.738;2023-09-18T08:43:28;1.95;;;0.90;;
9413;SDS011;4746;35.664;139.738;2023-09-18T08:45:58;0.70;;;0.70;;
9413;SDS011;4746;35.664;139.738;2023-09-18T08:48:29;1.08;;;0.90;;
9413;SDS011;4746;35.664;139.738;2023-09-18T08:51:05;2.97;;;0.95;;
9413;SDS011;4746;35.664;139.738;2023-09-18T08:53:35;2.13;;;0.63;;
9413;SDS011;4746;35.664;139.738;2023-09-18T08:56:04;1.80;;;0.93;;
9413;SDS011;4746;35.664;139.738;2023-09-18T08:58:38;2.75;;;1.00;;
9413;SDS011;4746;35.664;139.738;2023-09-18T09:01:11;0.93;;;0.75;;
9413;SDS011;4746;35.664;139.738;2023-09-18T09:03:40;0.90;;;0.90;;
9413;SDS011;4746;35.664;139.738;2023-09-18T09:06:11;1.13;;;0.93;;
9413;SDS011;4746;35.664;139.738;2023-09-18T09:08:39;0.73;;;0.73;;
9413;SDS011;4746;35.664;139.738;2023-09-18T09:11:07;2.45;;;1.00;;
9413;SDS011;4746;35.664;139.738;2023-09-18T09:13:34;1.65;;;1.00;;
9413;SDS011;4746;35.664;139.738;2023-09-18T09:16:02;1.20;;;1.00;;
9413;SDS011;4746;35.664;139.738;2023-09-18T09:18:30;2.58;;;1.05;;
9413;SDS011;4746;35.664;139.738;2023-09-18T09:20:59;2.55;;;1.17;;
9413;SDS011;4746;35.664;139.738;2023-09-18T09:23:52;1.45;;;0.90;;
9413;SDS011;4746;35.664;139.738;2023-09-18T09:26:20;2.75;;;1.02;;
9413;SDS011;4746;35.664;139.738;2023-09-18T09:28:49;3.35;;;1.00;;
9413;SDS011;4746;35.664;139.738;2023-09-18T09:31:26;3.67;;;1.13;;
9413;SDS011;4746;35.664;139.738;2023-09-18T09:33:56;1.70;;;0.93;;
9413;SDS011;4746;35.664;139.738;2023-09-18T09:36:26;1.00;;;0.70;;
9413;SDS011;4746;35.664;139.738;2023-09-18T09:38:56;3.55;;;1.52;;
9413;SDS011;4746;35.664;139.738;2023-09-18T09:41:26;2.28;;;1.20;;
9413;SDS011;4746;35.664;139.738;2023-09-18T09:43:54;1.70;;;1.00;;
9413;SDS011;4746;35.664;139.738;2023-09-18T09:46:22;2.20;;;1.05;;
9413;SDS011;4746;35.664;139.738;2023-09-18T09:51:31;3.92;;;1.35;;
9413;SDS011;4746;35.664;139.738;2023-09-18T09:54:00;3.50;;;0.85;;
9413;SDS011;4746;35.664;139.738;2023-09-18T09:56:40;3.72;;;1.00;;
9413;SDS011;4746;35.664;139.738;2023-09-18T09:59:19;1.50;;;1.00;;
9413;SDS011;4746;35.664;139.738;2023-09-18T10:01:47;1.10;;;1.00;;
9413;SDS011;4746;35.664;139.738;2023-09-18T10:04:17;2.15;;;1.38;;
9413;SDS011;4746;35.664;139.738;2023-09-18T10:06:49;2.47;;;1.00;;
9413;SDS011;4746;35.664;139.738;2023-09-18T10:09:22;2.15;;;1.10;;
9413;SDS011;4746;35.664;139.738;2023-09-18T10:11:55;1.65;;;1.15;;
9413;SDS011;4746;35.664;139.738;2023-09-18T10:14:29;4.00;;;1.30;;
9413;SDS011;4746;35.664;139.738;2023-09-18T10:17:06;3.35;;;1.20;;
9413;SDS011;4746;35.664;139.738;2023-09-18T10:19:53;5.45;;;1.58;;
9413;SDS011;4746;35.664;139.738;2023-09-18T10:22:42;3.33;;;1.10;;
9413;SDS011;4746;35.664;139.738;2023-09-18T10:25:17;2.40;;;1.17;;
9413;SDS011;4746;35.664;139.738;2023-09-18T10:27:53;1.90;;;1.00;;
9413;SDS011;4746;35.664;139.738;2023-09-18T10:30:27;2.97;;;1.25;;
9413;SDS011;4746;35.664;139.738;2023-09-18T10:32:59;1.10;;;0.88;;
9413;SDS011;4746;35.664;139.738;2023-09-18T10:35:27;3.10;;;1.00;;
9413;SDS011;4746;35.664;139.738;2023-09-18T10:37:56;1.77;;;1.45;;
9413;SDS011;4746;35.664;139.738;2023-09-18T10:40:28;3.60;;;1.05;;
9413;SDS011;4746;35.664;139.738;2023-09-18T10:42:57;1.50;;;1.00;;
9413;SDS011;4746;35.664;139.738;2023-09-18T10:45:31;2.83;;;1.25;;
9413;SDS011;4746;35.664;139.738;2023-09-18T10:47:59;2.25;;;1.23;;
9413;SDS011;4746;35.664;139.738;2023-09-18T10:50:28;3.35;;;1.10;;
9413;SDS011;4746;35.664;139.738;2023-09-18T10:52:59;2.45;;;1.08;;
9413;SDS011;4746;35.664;139.738;2023-09-18T10:55:27;3.63;;;1.30;;
9413;SDS011;4746;35.664;139.738;2023-09-18T10:57:56;5.63;;;1.25;;
9413;SDS011;4746;35.664;139.738;2023-09-18T11:00:26;3.53;;;1.30;;
9413;SDS011;4746;35.664;139.738;2023-09-18T11:03:12;2.65;;;1.20;;
9413;SDS011;4746;35.664;139.738;2023-09-18T11:05:45;6.30;;;1.90;;
9413;SDS011;4746;35.664;139.738;2023-09-18T11:08:25;1.73;;;1.13;;
9413;SDS011;4746;35.664;139.738;2023-09-18T11:13:36;3.97;;;1.20;;
9413;SDS011;4746;35.664;139.738;2023-09-18T11:16:15;2.25;;;1.00;;
9413;SDS011;4746;35.664;139.738;2023-09-18T11:21:26;2.25;;;1.33;;
9413;SDS011;4746;35.664;139.738;2023-09-18T11:24:06;2.75;;;1.23;;
9413;SDS011;4746;35.664;139.738;2023-09-18T11:26:46;1.65;;;1.25;;
9413;SDS011;4746;35.664;139.738;2023-09-18T11:29:16;4.53;;;1.70;;
9413;SDS011;4746;35.664;139.738;2023-09-18T11:31:53;3.28;;;1.50;;
9413;SDS011;4746;35.664;139.738;2023-09-18T11:37:00;3.72;;;1.88;;
9413;SDS011;4746;35.664;139.738;2023-09-18T11:39:51;3.90;;;1.48;;
9413;SDS011;4746;35.664;139.738;2023-09-18T11:42:19;2.42;;;1.55;;
9413;SDS011;4746;35.664;139.738;2023-09-18T11:44:54;3.13;;;1.10;;
9413;SDS011;4746;35.664;139.738;2023-09-18T11:47:24;2.53;;;1.48;;
9413;SDS011;4746;35.664;139.738;2023-09-18T11:49:55;1.67;;;1.10;;
9413;SDS011;4746;35.664;139.738;2023-09-18T11:52:26;3.78;;;1.20;;
9413;SDS011;4746;35.664;139.738;2023-09-18T11:54:56;0.93;;;0.90;;
9413;SDS011;4746;35.664;139.738;2023-09-18T11:57:26;2.90;;;1.30;;
9413;SDS011;4746;35.664;139.738;2023-09-18T11:59:57;3.45;;;1.70;;
9413;SDS011;4746;35.664;139.738;2023-09-18T12:02:37;1.63;;;0.93;;
9413;SDS011;4746;35.664;139.738;2023-09-18T12:05:15;3.30;;;1.63;;
9413;SDS011;4746;35.664;139.738;2023-09-18T12:07:45;3.60;;;1.60;;
9413;SDS011;4746;35.664;139.738;2023-09-18T12:10:15;2.92;;;1.50;;
9413;SDS011;4746;35.664;139.738;2023-09-18T12:12:48;4.32;;;1.48;;
9413;SDS011;4746;35.664;139.738;2023-09-18T12:15:17;3.20;;;1.50;;
9413;SDS011;4746;35.664;139.738;2023-09-18T12:17:45;2.53;;;1.38;;
9413;SDS011;4746;35.664;139.738;2023-09-18T12:20:16;4.70;;;1.13;;
9413;SDS011;4746;35.664;139.738;2023-09-18T12:22:48;1.83;;;1.20;;
9413;SDS011;4746;35.664;139.738;2023-09-18T12:25:17;3.50;;;1.33;;
9413;SDS011;4746;35.664;139.738;2023-09-18T12:27:45;1.98;;;1.30;;
9413;SDS011;4746;35.664;139.738;2023-09-18T12:30:18;1.95;;;1.42;;
9413;SDS011;4746;35.664;139.738;2023-09-18T12:32:49;2.90;;;1.38;;
9413;SDS011;4746;35.664;139.738;2023-09-18T12:35:18;3.72;;;1.40;;
9413;SDS011;4746;35.664;139.738;2023-09-18T12:37:45;3.38;;;1.42;;
9413;SDS011;4746;35.664;139.738;2023-09-18T12:40:27;1.60;;;1.20;;
9413;SDS011;4746;35.664;139.738;2023-09-18T12:43:00;1.70;;;1.10;;
9413;SDS011;4746;35.664;139.738;2023-09-18T12:45:29;1.67;;;1.50;;
9413;SDS011;4746;35.664;139.738;2023-09-18T12:47:57;1.75;;;1.30;;
9413;SDS011;4746;35.664;139.738;2023-09-18T12:50:27;1.42;;;1.17;;
9413;SDS011;4746;35.664;139.738;2023-09-18T12:53:21;1.80;;;1.30;;
9413;SDS011;4746;35.664;139.738;2023-09-18T12:55:48;3.30;;;1.42;;
9413;SDS011;4746;35.664;139.738;2023-09-18T12:58:20;3.60;;;1.70;;
9413;SDS011;4746;35.664;139.738;2023-09-18T13:00:49;2.35;;;1.20;;
9413;SDS011;4746;35.664;139.738;2023-09-18T13:03:17;3.13;;;1.52;;
9413;SDS011;4746;35.664;139.738;2023-09-18T13:05:45;2.30;;;1.20;;
9413;SDS011;4746;35.664;139.738;2023-09-18T13:08:13;1.70;;;1.00;;
9413;SDS011;4746;35.664;139.738;2023-09-18T13:10:45;2.47;;;1.60;;
9413;SDS011;4746;35.664;139.738;2023-09-18T13:13:18;2.20;;;1.20;;
9413;SDS011;4746;35.664;139.738;2023-09-18T13:15:48;6.25;;;1.60;;
9413;SDS011;4746;35.664;139.738;2023-09-18T13:18:16;2.80;;;1.33;;
9413;SDS011;4746;35.664;139.738;2023-09-18T13:20:44;1.92;;;1.25;;
9413;SDS011;4746;35.664;139.738;2023-09-18T13:23:12;3.05;;;1.30;;
9413;SDS011;4746;35.664;139.738;2023-09-18T13:25:41;2.17;;;1.13;;
9413;SDS011;4746;35.664;139.738;2023-09-18T13:28:10;1.67;;;1.20;;
9413;SDS011;4746;35.664;139.738;2023-09-18T13:30:40;3.95;;;1.30;;
9413;SDS011;4746;35.664;139.738;2023-09-18T13:33:10;3.45;;;1.35;;
9413;SDS011;4746;35.664;139.738;2023-09-18T13:35:41;2.70;;;1.50;;
9413;SDS011;4746;35.664;139.738;2023-09-18T13:38:12;2.05;;;1.17;;
9413;SDS011;4746;35.664;139.738;2023-09-18T13:40:45;3.53;;;1.20;;
9413;SDS011;4746;35.664;139.738;2023-09-18T13:43:14;1.75;;;1.10;;
9413;SDS011;4746;35.664;139.738;2023-09-18T13:45:44;1.67;;;1.10;;
9413;SDS011;4746;35.664;139.738;2023-09-18T13:48:11;2.97;;;1.35;;
9413;SDS011;4746;35.664;139.738;2023-09-18T13:50:41;2.92;;;1.10;;
9413;SDS011;4746;35.664;139.738;2023-09-18T13:53:09;2.33;;;1.15;;
9413;SDS011;4746;35.664;139.738;2023-09-18T13:55:36;2.53;;;1.30;;
9413;SDS011;4746;35.664;139.738;2023-09-18T13:58:04;1.77;;;1.50;;
9413;SDS011;4746;35.664;139.738;2023-09-18T14:00:34;2.30;;;1.70;;
9413;SDS011;4746;35.664;139.738;2023-09-18T14:03:02;2.30;;;2.10;;
9413;SDS011;4746;35.664;139.738;2023-09-18T14:05:30;1.95;;;1.75;;
9413;SDS011;4746;35.664;139.738;2023-09-18T14:07:59;2.58;;;2.30;;
9413;SDS011;4746;35.664;139.738;2023-09-18T14:10:31;2.15;;;1.95;;
9413;SDS011;4746;35.664;139.738;2023-09-18T14:12:58;2.65;;;2.08;;
9413;SDS011;4746;35.664;139.738;2023-09-18T14:15:26;4.32;;;2.10;;
9413;SDS011;4746;35.664;139.738;2023-09-18T14:17:54;2.83;;;1.77;;
9413;SDS011;4746;35.664;139.738;2023-09-18T14:20:22;1.98;;;1.73;;
9413;SDS011;4746;35.664;139.738;2023-09-18T14:22:50;2.00;;;1.60;;
9413;SDS011;4746;35.664;139.738;2023-09-18T14:25:17;2.00;;;1.67;;
9413;SDS011;4746;35.664;139.738;2023-09-18T14:27:47;1.65;;;1.55;;
9413;SDS011;4746;35.664;139.738;2023-09-18T14:30:14;2.28;;;1.48;;
9413;SDS011;4746;35.664;139.738;2023-09-18T14:32:44;1.88;;;1.70;;
9413;SDS011;4746;35.664;139.738;2023-09-18T14:35:12;2.42;;;1.50;;
9413;SDS011;4746;35.664;139.738;2023-09-18T14:37:42;1.58;;;1.25;;
9413;SDS011;4746;35.664;139.738;2023-09-18T14:40:10;1.73;;;1.00;;
9413;SDS011;4746;35.664;139.738;2023-09-18T14:42:38;1.15;;;0.80;;
9413;SDS011;4746;35.664;139.738;2023-09-18T14:45:05;0.70;;;0.70;;
9413;SDS011;4746;35.664;139.738;2023-09-18T14:47:39;2.38;;;1.00;;
9413;SDS011;4746;35.664;139.738;2023-09-18T14:50:07;1.00;;;0.90;;
9413;SDS011;4746;35.664;139.738;2023-09-18T14:52:41;1.17;;;0.75;;
9413;SDS011;4746;35.664;139.738;2023-09-18T14:55:41;1.58;;;0.65;;
9413;SDS011;4746;35.664;139.738;2023-09-18T14:58:25;1.33;;;1.02;;
9413;SDS011;4746;35.664;139.738;2023-09-18T15:01:14;1.65;;;0.93;;
9413;SDS011;4746;35.664;139.738;2023-09-18T15:03:53;1.63;;;0.70;;
9413;SDS011;4746;35.664;139.738;2023-09-18T15:06:30;1.05;;;0.70;;
9413;SDS011;4746;35.664;139.738;2023-09-18T15:09:13;1.85;;;0.60;;
9413;SDS011;4746;35.664;139.738;2023-09-18T15:11:49;1.80;;;0.70;;
9413;SDS011;4746;35.664;139.738;2023-09-18T15:14:25;1.17;;;0.60;;
9413;SDS011;4746;35.664;139.738;2023-09-18T15:19:40;1.88;;;0.63;;
9413;SDS011;4746;35.664;139.738;2023-09-18T15:22:14;1.55;;;0.75;;
9413;SDS011;4746;35.664;139.738;2023-09-18T15:24:41;2.75;;;1.00;;
9413;SDS011;4746;35.664;139.738;2023-09-18T15:27:09;1.65;;;0.70;;
9413;SDS011;4746;35.664;139.738;2023-09-18T15:29:39;2.33;;;1.00;;
9413;SDS011;4746;35.664;139.738;2023-09-18T15:32:08;3.33;;;0.98;;
9413;SDS011;4746;35.664;139.738;2023-09-18T15:34:36;1.60;;;0.80;;
9413;SDS011;4746;35.664;139.738;2023-09-18T15:37:04;2.72;;;0.82;;
9413;SDS011;4746;35.664;139.738;2023-09-18T15:39:34;1.48;;;0.70;;